createdAt,value
2023-12-04T00:00:02.638Z,99820.47
2023-12-04T00:00:34.159Z,99828.63
2023-12-04T00:01:05.802Z,99816.94
2023-12-04T00:01:37.339Z,99824.28
2023-12-04T00:02:09.791Z,99813.97
2023-12-04T00:02:41.308Z,99818.28
2023-12-04T00:03:12.871Z,99813.16
2023-12-04T00:03:44.505Z,99817.50
2023-12-04T00:04:16.117Z,99821.00
2023-12-04T00:04:47.874Z,99830.25
2023-12-04T00:05:19.398Z,99820.47
2023-12-04T00:05:50.962Z,99821.00
2023-12-04T00:06:22.465Z,99818.84
2023-12-04T00:06:54.047Z,99817.22
2023-12-04T00:07:25.469Z,99817.75
2023-12-04T00:07:56.994Z,99815.03
2023-12-04T00:08:28.439Z,99811.50
2023-12-04T00:08:59.905Z,99807.72
2023-12-04T00:09:31.486Z,99807.72
2023-12-04T00:10:03.090Z,99802.56
2023-12-04T00:10:34.646Z,99804.72
2023-12-04T00:11:06.171Z,99806.91
2023-12-04T00:11:37.706Z,99802.56
2023-12-04T00:12:09.276Z,99795.50
2023-12-04T00:12:40.866Z,99799.84
2023-12-04T00:13:12.463Z,99804.72
2023-12-04T00:13:43.948Z,99803.91
2023-12-04T00:14:15.472Z,99793.31
2023-12-04T00:14:47.045Z,99800.38
2023-12-04T00:15:18.558Z,99798.22
2023-12-04T00:15:50.188Z,99799.28
2023-12-04T00:16:21.714Z,99794.41
2023-12-04T00:16:53.143Z,99791.44
2023-12-04T00:17:24.840Z,99797.66
2023-12-04T00:17:56.806Z,99796.03
2023-12-04T00:18:28.464Z,99800.66
2023-12-04T00:19:00.255Z,99798.22
2023-12-04T00:19:31.821Z,99796.31
2023-12-04T00:20:03.307Z,99793.59
2023-12-04T00:20:34.798Z,99794.41
2023-12-04T00:21:06.456Z,99792.50
2023-12-04T00:21:37.951Z,99798.75
2023-12-04T00:22:09.503Z,99808.53
2023-12-04T00:22:41.042Z,99795.22
2023-12-04T00:23:12.547Z,99804.47
2023-12-04T00:23:44.069Z,99799.84
2023-12-04T00:24:15.578Z,99789.53
2023-12-04T00:24:47.093Z,99790.88
2023-12-04T00:25:18.680Z,99788.16
2023-12-04T00:25:50.163Z,99782.75
2023-12-04T00:26:21.626Z,99789.00
2023-12-04T00:26:53.107Z,99787.34
2023-12-04T00:27:24.659Z,99785.19
2023-12-04T00:27:56.811Z,99780.56
2023-12-04T00:28:28.357Z,99783.28
2023-12-04T00:28:59.932Z,99780.56
2023-12-04T00:29:31.555Z,99774.31
2023-12-04T00:30:03.084Z,99785.19
2023-12-04T00:30:34.581Z,99784.38
2023-12-04T00:31:06.153Z,99774.31
2023-12-04T00:31:37.669Z,99778.94
2023-12-04T00:32:09.211Z,99777.03
2023-12-04T00:32:40.735Z,99774.31
2023-12-04T00:33:12.417Z,99775.94
2023-12-04T00:33:44.125Z,99775.94
2023-12-04T00:34:15.698Z,99775.13
2023-12-04T00:34:47.237Z,99772.41
2023-12-04T00:35:18.700Z,99771.34
2023-12-04T00:35:50.233Z,99779.19
2023-12-04T00:36:21.680Z,99767.81
2023-12-04T00:36:53.166Z,99775.94
2023-12-04T00:37:24.656Z,99768.91
2023-12-04T00:37:57.014Z,99768.63
2023-12-04T00:38:28.586Z,99768.34
2023-12-04T00:39:00.109Z,99770.53
2023-12-04T00:39:31.573Z,99762.38
2023-12-04T00:40:03.153Z,99793.31
2023-12-04T00:40:34.742Z,99776.50
2023-12-04T00:41:06.280Z,99772.69
2023-12-04T00:41:39.735Z,99769.72
2023-12-04T00:42:11.569Z,99764.56
2023-12-04T00:42:43.140Z,99766.47
2023-12-04T00:43:14.674Z,99768.34
2023-12-04T00:43:46.099Z,99761.84
2023-12-04T00:44:17.594Z,99766.72
2023-12-04T00:44:49.053Z,99762.13
2023-12-04T00:45:20.512Z,99768.09
2023-12-04T00:45:52.033Z,99771.06
2023-12-04T00:46:23.514Z,99765.09
2023-12-04T00:46:55.104Z,99773.50
2023-12-04T00:47:26.662Z,99765.63
2023-12-04T00:47:58.325Z,99774.59
2023-12-04T00:48:29.852Z,99763.19
2023-12-04T00:49:02.417Z,99774.59
2023-12-04T00:49:34.064Z,99765.38
2023-12-04T00:50:06.458Z,99773.78
2023-12-04T00:50:37.921Z,99763.19
2023-12-04T00:51:09.433Z,99759.41
2023-12-04T00:51:41.016Z,99753.69
2023-12-04T00:52:12.560Z,99761.84
2023-12-04T00:52:44.111Z,99755.88
2023-12-04T00:53:15.555Z,99759.94
2023-12-04T00:53:47.077Z,99756.97
2023-12-04T00:54:18.528Z,99758.06
2023-12-04T00:54:50.032Z,99758.06
2023-12-04T00:55:21.537Z,99756.97
2023-12-04T00:55:53.027Z,99754.25
2023-12-04T00:56:24.529Z,99764.84
2023-12-04T00:56:56.087Z,99762.38
2023-12-04T00:57:27.550Z,99767.28
2023-12-04T00:57:59.110Z,99765.63
2023-12-04T00:58:30.624Z,99761.03
2023-12-04T00:59:02.665Z,99764.84
2023-12-04T00:59:34.134Z,99778.13
2023-12-04T01:00:05.680Z,99759.69
2023-12-04T01:00:37.189Z,99777.31
2023-12-04T01:01:08.759Z,99762.13
2023-12-04T01:01:40.348Z,99752.34
2023-12-04T01:02:11.847Z,99757.78
2023-12-04T01:02:43.348Z,99767.28
2023-12-04T01:03:14.871Z,99762.94
2023-12-04T01:03:46.344Z,99764.00
2023-12-04T01:04:17.915Z,99765.63
2023-12-04T01:04:49.407Z,99763.19
2023-12-04T01:05:20.992Z,99762.13
2023-12-04T01:05:52.511Z,99769.16
2023-12-04T01:06:24.094Z,99761.03
2023-12-04T01:06:55.616Z,99761.84
2023-12-04T01:07:27.211Z,99773.50
2023-12-04T01:07:59.068Z,99761.56
2023-12-04T01:08:30.661Z,99760.47
2023-12-04T01:09:02.260Z,99753.69
2023-12-04T01:09:33.753Z,99752.59
2023-12-04T01:10:05.316Z,99755.31
2023-12-04T01:10:36.892Z,99748.00
2023-12-04T01:11:08.363Z,99759.66
2023-12-04T01:11:39.866Z,99748.81
2023-12-04T01:12:11.384Z,99754.22
2023-12-04T01:12:42.845Z,99751.78
2023-12-04T01:13:14.435Z,99749.91
2023-12-04T01:13:45.868Z,99743.38
2023-12-04T01:14:17.361Z,99748.00
2023-12-04T01:14:48.893Z,99751.53
2023-12-04T01:15:20.436Z,99741.75
2023-12-04T01:15:52.226Z,99740.13
2023-12-04T01:16:23.715Z,99742.56
2023-12-04T01:16:55.209Z,99739.84
2023-12-04T01:17:26.757Z,99739.56
2023-12-04T01:17:58.320Z,99744.72
2023-12-04T01:18:29.970Z,99739.03
2023-12-04T01:19:01.921Z,99734.69
2023-12-04T01:19:33.564Z,99740.13
2023-12-04T01:20:05.178Z,99737.69
2023-12-04T01:20:36.787Z,99738.50
2023-12-04T01:21:08.322Z,99734.69
2023-12-04T01:21:39.912Z,99734.69
2023-12-04T01:22:11.405Z,99732.78
2023-12-04T01:22:42.895Z,99734.41
2023-12-04T01:23:14.423Z,99736.31
2023-12-04T01:23:45.956Z,99741.75
2023-12-04T01:24:17.569Z,99737.13
2023-12-04T01:24:49.124Z,99737.13
2023-12-04T01:25:20.598Z,99739.03
2023-12-04T01:25:52.116Z,99745.28
2023-12-04T01:26:23.650Z,99739.03
2023-12-04T01:26:55.155Z,99732.50
2023-12-04T01:27:26.632Z,99738.22
2023-12-04T01:27:58.140Z,99729.25
2023-12-04T01:28:29.635Z,99736.03
2023-12-04T01:29:01.323Z,99718.94
2023-12-04T01:29:32.784Z,99738.47
2023-12-04T01:30:04.307Z,99729.50
2023-12-04T01:30:35.810Z,99729.78
2023-12-04T01:31:07.387Z,99732.50
2023-12-04T01:31:38.809Z,99731.69
2023-12-04T01:32:10.305Z,99731.69
2023-12-04T01:32:41.750Z,99724.34
2023-12-04T01:33:13.422Z,99730.59
2023-12-04T01:33:45.074Z,99729.78
2023-12-04T01:34:16.641Z,99728.16
2023-12-04T01:34:48.142Z,99724.34
2023-12-04T01:35:19.618Z,99731.69
2023-12-04T01:35:51.149Z,99723.25
2023-12-04T01:36:22.737Z,99736.03
2023-12-04T01:36:54.607Z,99723.81
2023-12-04T01:37:26.192Z,99723.00
2023-12-04T01:37:57.672Z,99719.47
2023-12-04T01:38:29.223Z,99723.25
2023-12-04T01:39:00.829Z,99721.63
2023-12-04T01:39:32.350Z,99725.44
2023-12-04T01:40:04.034Z,99725.44
2023-12-04T01:40:35.543Z,99728.16
2023-12-04T01:41:07.229Z,99726.25
2023-12-04T01:41:38.712Z,99718.38
2023-12-04T01:42:10.212Z,99715.94
2023-12-04T01:42:41.710Z,99723.53
2023-12-04T01:43:13.262Z,99716.50
2023-12-04T01:43:44.771Z,99721.09
2023-12-04T01:44:16.297Z,99717.03
2023-12-04T01:44:47.812Z,99719.47
2023-12-04T01:45:19.290Z,99711.59
2023-12-04T01:45:50.828Z,99714.31
2023-12-04T01:46:22.268Z,99715.13
2023-12-04T01:46:53.862Z,99717.84
2023-12-04T01:47:25.410Z,99714.31
2023-12-04T01:47:57.023Z,99711.59
2023-12-04T01:48:28.591Z,99716.75
2023-12-04T01:49:00.161Z,99708.63
2023-12-04T01:49:31.726Z,99709.97
2023-12-04T01:50:03.277Z,99714.31
2023-12-04T01:50:34.790Z,99711.88
2023-12-04T01:51:06.278Z,99711.34
2023-12-04T01:51:37.808Z,99705.34
2023-12-04T01:52:09.380Z,99705.34
2023-12-04T01:52:40.884Z,99709.41
2023-12-04T01:53:12.345Z,99703.44
2023-12-04T01:53:43.842Z,99708.34
2023-12-04T01:54:15.306Z,99702.63
2023-12-04T01:54:46.815Z,99706.44
2023-12-04T01:55:18.385Z,99703.72
2023-12-04T01:55:49.833Z,99701.00
2023-12-04T01:56:21.257Z,99702.91
2023-12-04T01:56:52.714Z,99700.19
2023-12-04T01:57:24.200Z,99698.03
2023-12-04T01:57:55.768Z,99704.00
2023-12-04T01:58:27.334Z,99693.97
2023-12-04T01:58:58.893Z,99698.84
2023-12-04T01:59:30.356Z,99699.13
2023-12-04T02:00:01.899Z,99696.13
2023-12-04T02:00:33.425Z,99695.31
2023-12-04T02:01:05.769Z,99691.53
2023-12-04T02:01:37.383Z,99700.22
2023-12-04T02:02:08.946Z,99695.31
2023-12-04T02:02:40.448Z,99699.94
2023-12-04T02:03:12.139Z,99698.03
2023-12-04T02:03:43.738Z,99692.59
2023-12-04T02:04:15.299Z,99693.41
2023-12-04T02:04:47.044Z,99695.03
2023-12-04T02:05:18.741Z,99694.50
2023-12-04T02:05:50.239Z,99704.00
2023-12-04T02:06:21.706Z,99697.47
2023-12-04T02:06:53.194Z,99697.75
2023-12-04T02:07:24.893Z,99689.63
2023-12-04T02:07:56.360Z,99695.59
2023-12-04T02:08:27.917Z,99686.91
2023-12-04T02:08:59.410Z,99685.81
2023-12-04T02:09:30.947Z,99691.25
2023-12-04T02:10:02.570Z,99690.44
2023-12-04T02:10:34.133Z,99688.53
2023-12-04T02:11:05.599Z,99691.25
2023-12-04T02:11:37.091Z,99694.22
2023-12-04T02:12:09.332Z,99692.06
2023-12-04T02:12:40.834Z,99688.78
2023-12-04T02:13:12.354Z,99689.06
2023-12-04T02:13:43.908Z,99693.13
2023-12-04T02:14:15.408Z,99693.13
2023-12-04T02:14:46.885Z,99694.22
2023-12-04T02:15:18.676Z,99692.31
2023-12-04T02:15:50.248Z,99689.59
2023-12-04T02:16:21.786Z,99687.16
2023-12-04T02:16:53.249Z,99694.50
2023-12-04T02:17:24.746Z,99699.09
2023-12-04T02:17:56.318Z,99688.53
2023-12-04T02:18:27.925Z,99693.16
2023-12-04T02:18:59.472Z,99684.72
2023-12-04T02:19:31.221Z,99691.78
2023-12-04T02:20:03.088Z,99693.16
2023-12-04T02:20:34.535Z,99692.06
2023-12-04T02:21:06.175Z,99691.78
2023-12-04T02:21:37.699Z,99694.50
2023-12-04T02:22:09.327Z,99690.69
2023-12-04T02:22:40.811Z,99695.03
2023-12-04T02:23:12.408Z,99685.78
2023-12-04T02:23:43.897Z,99695.56
2023-12-04T02:24:15.463Z,99680.38
2023-12-04T02:24:46.985Z,99693.66
2023-12-04T02:25:26.591Z,99697.19
2023-12-04T02:26:06.663Z,99687.13
2023-12-04T02:26:38.221Z,99693.38
2023-12-04T02:27:09.688Z,99694.47
2023-12-04T02:27:41.187Z,99691.47
2023-12-04T02:28:12.700Z,99696.38
2023-12-04T02:28:44.169Z,99693.38
2023-12-04T02:29:15.731Z,99694.47
2023-12-04T02:29:47.652Z,99692.84
2023-12-04T02:30:19.173Z,99693.66
2023-12-04T02:30:50.699Z,99692.84
2023-12-04T02:31:22.177Z,99695.28
2023-12-04T02:31:53.628Z,99689.84
2023-12-04T02:32:25.094Z,99693.38
2023-12-04T02:32:56.914Z,99693.38
2023-12-04T02:33:28.497Z,99692.56
2023-12-04T02:34:00.225Z,99691.22
2023-12-04T02:34:31.927Z,99690.94
2023-12-04T02:35:03.468Z,99689.84
2023-12-04T02:35:34.962Z,99686.06
2023-12-04T02:36:06.447Z,99681.44
2023-12-04T02:36:37.896Z,99686.31
2023-12-04T02:37:09.505Z,99692.28
2023-12-04T02:37:41.074Z,99696.09
2023-12-04T02:38:12.537Z,99692.28
2023-12-04T02:38:43.974Z,99689.56
2023-12-04T02:39:15.473Z,99689.56
2023-12-04T02:39:47.052Z,99687.69
2023-12-04T02:40:18.504Z,99685.25
2023-12-04T02:40:50.020Z,99685.25
2023-12-04T02:41:21.493Z,99681.72
2023-12-04T02:41:53.045Z,99679.81
2023-12-04T02:42:24.475Z,99674.09
2023-12-04T02:42:56.043Z,99677.63
2023-12-04T02:43:27.557Z,99681.44
2023-12-04T02:43:59.375Z,99677.91
2023-12-04T02:44:30.902Z,99671.38
2023-12-04T02:45:02.667Z,99683.06
2023-12-04T02:45:34.392Z,99685.25
2023-12-04T02:46:06.157Z,99683.06
2023-12-04T02:46:37.721Z,99680.88
2023-12-04T02:47:09.140Z,99679.25
2023-12-04T02:47:40.664Z,99674.91
2023-12-04T02:48:12.269Z,99677.34
2023-12-04T02:48:44.033Z,99678.44
2023-12-04T02:49:15.668Z,99677.63
2023-12-04T02:49:47.273Z,99673.28
2023-12-04T02:50:18.820Z,99669.19
2023-12-04T02:50:50.443Z,99674.63
2023-12-04T02:51:21.868Z,99673.28
2023-12-04T02:51:53.342Z,99676.00
2023-12-04T02:52:24.805Z,99674.38
2023-12-04T02:52:56.737Z,99674.09
2023-12-04T02:53:28.252Z,99668.94
2023-12-04T02:53:59.792Z,99666.22
2023-12-04T02:54:31.292Z,99663.50
2023-12-04T02:55:02.818Z,99669.47
2023-12-04T02:55:34.257Z,99660.53
2023-12-04T02:56:06.451Z,99658.09
2023-12-04T02:56:37.914Z,99654.84
2023-12-04T02:57:09.397Z,99661.06
2023-12-04T02:57:40.934Z,99660.81
2023-12-04T02:58:12.516Z,99649.41
2023-12-04T02:58:44.026Z,99653.75
2023-12-04T02:59:15.530Z,99652.66
2023-12-04T02:59:46.975Z,99652.13
2023-12-04T03:00:18.442Z,99657.81
2023-12-04T03:00:49.933Z,99643.69
2023-12-04T03:01:21.507Z,99660.81
2023-12-04T03:01:53.043Z,99643.97
2023-12-04T03:02:24.576Z,99642.34
2023-12-04T03:02:56.085Z,99646.16
2023-12-04T03:03:27.560Z,99646.44
2023-12-04T03:03:59.227Z,99636.38
2023-12-04T03:04:30.795Z,99643.72
2023-12-04T03:05:03.013Z,99643.72
2023-12-04T03:05:34.513Z,99646.72
2023-12-04T03:06:06.607Z,99650.25
2023-12-04T03:06:38.192Z,99647.25
2023-12-04T03:07:09.799Z,99635.56
2023-12-04T03:07:41.372Z,99640.19
2023-12-04T03:08:12.819Z,99641.28
2023-12-04T03:08:44.372Z,99643.19
2023-12-04T03:09:15.871Z,99636.94
2023-12-04T03:09:49.552Z,99634.22
2023-12-04T03:10:21.678Z,99639.66
2023-12-04T03:10:53.259Z,99636.94
2023-12-04T03:11:24.691Z,99640.75
2023-12-04T03:11:56.881Z,99634.22
2023-12-04T03:12:28.430Z,99635.84
2023-12-04T03:12:59.908Z,99632.59
2023-12-04T03:13:31.554Z,99634.22
2023-12-04T03:14:03.115Z,99640.47
2023-12-04T03:14:34.689Z,99637.22
2023-12-04T03:15:06.228Z,99628.28
2023-12-04T03:15:37.709Z,99628.81
2023-12-04T03:16:09.342Z,99628.00
2023-12-04T03:16:40.876Z,99628.81
2023-12-04T03:17:12.382Z,99622.28
2023-12-04T03:17:44.004Z,99630.16
2023-12-04T03:18:15.607Z,99628.53
2023-12-04T03:18:47.228Z,99627.72
2023-12-04T03:19:18.821Z,99635.84
2023-12-04T03:19:50.508Z,99628.00
2023-12-04T03:20:22.106Z,99628.81
2023-12-04T03:20:53.579Z,99629.34
2023-12-04T03:21:25.209Z,99623.09
2023-12-04T03:21:57.139Z,99629.34
2023-12-04T03:22:28.661Z,99626.91
2023-12-04T03:23:00.126Z,99623.91
2023-12-04T03:23:31.654Z,99620.66
2023-12-04T03:24:03.138Z,99630.69
2023-12-04T03:24:34.659Z,99613.59
2023-12-04T03:25:06.175Z,99612.50
2023-12-04T03:25:37.711Z,99620.38
2023-12-04T03:26:09.325Z,99621.19
2023-12-04T03:26:40.860Z,99612.50
2023-12-04T03:27:12.351Z,99614.13
2023-12-04T03:27:43.850Z,99613.31
2023-12-04T03:28:15.352Z,99610.34
2023-12-04T03:28:46.850Z,99609.53
2023-12-04T03:29:18.385Z,99604.91
2023-12-04T03:29:49.857Z,99615.75
2023-12-04T03:30:21.512Z,99610.34
2023-12-04T03:30:53.128Z,99611.16
2023-12-04T03:31:24.623Z,99604.91
2023-12-04T03:31:56.123Z,99605.72
2023-12-04T03:32:27.637Z,99614.41
2023-12-04T03:32:59.199Z,99607.34
2023-12-04T03:33:31.048Z,99610.88
2023-12-04T03:34:02.685Z,99613.03
2023-12-04T03:34:34.227Z,99604.09
2023-12-04T03:35:05.840Z,99607.63
2023-12-04T03:35:37.339Z,99606.00
2023-12-04T03:36:08.795Z,99602.75
2023-12-04T03:36:40.260Z,99606.00
2023-12-04T03:37:11.812Z,99606.00
2023-12-04T03:37:43.372Z,99609.53
2023-12-04T03:38:14.890Z,99606.53
2023-12-04T03:38:46.348Z,99597.84
2023-12-04T03:39:17.869Z,99611.97
2023-12-04T03:39:49.436Z,99605.16
2023-12-04T03:40:20.975Z,99601.38
2023-12-04T03:40:52.470Z,99607.63
2023-12-04T03:41:23.904Z,99605.72
2023-12-04T03:41:55.420Z,99597.84
2023-12-04T03:42:26.871Z,99607.34
2023-12-04T03:42:58.485Z,99602.19
2023-12-04T03:43:30.002Z,99603.28
2023-12-04T03:44:01.472Z,99599.19
2023-12-04T03:44:33.057Z,99610.06
2023-12-04T03:45:04.576Z,99597.00
2023-12-04T03:45:36.054Z,99604.63
2023-12-04T03:46:07.641Z,99598.91
2023-12-04T03:46:39.134Z,99595.91
2023-12-04T03:47:10.647Z,99595.63
2023-12-04T03:47:42.131Z,99595.09
2023-12-04T03:48:13.781Z,99596.72
2023-12-04T03:48:45.529Z,99595.09
2023-12-04T03:49:17.188Z,99600.53
2023-12-04T03:49:48.685Z,99598.91
2023-12-04T03:50:20.164Z,99594.00
2023-12-04T03:50:51.686Z,99588.31
2023-12-04T03:51:23.190Z,99592.13
2023-12-04T03:51:54.767Z,99582.06
2023-12-04T03:52:26.285Z,99585.88
2023-12-04T03:52:57.732Z,99586.97
2023-12-04T03:53:29.209Z,99586.69
2023-12-04T03:54:00.710Z,99581.81
2023-12-04T03:54:32.314Z,99587.25
2023-12-04T03:55:03.920Z,99590.25
2023-12-04T03:55:35.469Z,99585.63
2023-12-04T03:56:06.915Z,99586.16
2023-12-04T03:56:38.441Z,99590.50
2023-12-04T03:57:10.084Z,99594.28
2023-12-04T03:57:41.613Z,99593.47
2023-12-04T03:58:13.126Z,99589.69
2023-12-04T03:58:44.637Z,99591.59
2023-12-04T03:59:16.163Z,99582.63
2023-12-04T03:59:47.708Z,99590.50
2023-12-04T04:00:19.152Z,99588.88
2023-12-04T04:00:50.661Z,99588.59
2023-12-04T04:01:22.170Z,99581.00
2023-12-04T04:01:53.699Z,99591.84
2023-12-04T04:02:25.201Z,99587.25
2023-12-04T04:02:56.893Z,99579.91
2023-12-04T04:03:28.524Z,99583.97
2023-12-04T04:04:00.051Z,99581.81
2023-12-04T04:04:31.509Z,99583.44
2023-12-04T04:05:02.986Z,99584.81
2023-12-04T04:05:34.448Z,99575.84
2023-12-04T04:06:06.099Z,99577.47
2023-12-04T04:06:37.626Z,99578.56
2023-12-04T04:07:09.257Z,99575.31
2023-12-04T04:07:40.989Z,99581.56
2023-12-04T04:08:12.701Z,99578.03
2023-12-04T04:08:44.168Z,99579.13
2023-12-04T04:09:15.818Z,99581.03
2023-12-04T04:09:47.392Z,99579.94
2023-12-04T04:10:18.941Z,99579.41
2023-12-04T04:10:50.522Z,99578.31
2023-12-04T04:11:22.039Z,99578.88
2023-12-04T04:11:53.581Z,99578.88
2023-12-04T04:12:25.080Z,99572.34
2023-12-04T04:12:56.971Z,99583.50
2023-12-04T04:13:28.539Z,99583.50
2023-12-04T04:14:00.028Z,99581.59
2023-12-04T04:14:31.500Z,99580.50
2023-12-04T04:15:03.041Z,99579.13
2023-12-04T04:15:34.574Z,99575.59
2023-12-04T04:16:06.130Z,99587.56
2023-12-04T04:16:37.623Z,99582.13
2023-12-04T04:17:09.117Z,99579.69
2023-12-04T04:17:40.756Z,99576.16
2023-12-04T04:18:12.418Z,99575.06
2023-12-04T04:18:44.236Z,99575.06
2023-12-04T04:19:16.056Z,99579.16
2023-12-04T04:19:47.668Z,99574.53
2023-12-04T04:20:19.296Z,99579.69
2023-12-04T04:20:50.774Z,99574.50
2023-12-04T04:21:22.412Z,99576.69
2023-12-04T04:21:54.037Z,99573.97
2023-12-04T04:22:25.590Z,99570.44
2023-12-04T04:22:57.040Z,99569.63
2023-12-04T04:23:28.565Z,99575.06
2023-12-04T04:24:00.133Z,99575.59
2023-12-04T04:24:31.709Z,99565.84
2023-12-04T04:25:03.410Z,99573.69
2023-12-04T04:25:34.919Z,99576.69
2023-12-04T04:26:06.465Z,99568.81
2023-12-04T04:26:37.959Z,99576.16
2023-12-04T04:27:09.461Z,99578.88
2023-12-04T04:27:40.991Z,99572.34
2023-12-04T04:28:12.638Z,99572.88
2023-12-04T04:28:44.270Z,99570.16
2023-12-04T04:29:15.791Z,99566.13
2023-12-04T04:29:47.275Z,99560.41
2023-12-04T04:30:18.843Z,99568.81
2023-12-04T04:30:50.412Z,99561.50
2023-12-04T04:31:21.910Z,99563.41
2023-12-04T04:31:53.415Z,99572.34
2023-12-04T04:32:24.977Z,99565.03
2023-12-04T04:32:56.923Z,99567.72
2023-12-04T04:33:28.473Z,99569.63
2023-12-04T04:34:00.166Z,99563.41
2023-12-04T04:34:31.860Z,99562.84
2023-12-04T04:35:03.580Z,99558.78
2023-12-04T04:35:35.040Z,99572.88
2023-12-04T04:36:06.510Z,99563.66
2023-12-04T04:36:38.078Z,99555.22
2023-12-04T04:37:09.656Z,99551.69
2023-12-04T04:37:44.039Z,99562.28
2023-12-04T04:38:16.962Z,99557.66
2023-12-04T04:38:48.412Z,99557.94
2023-12-04T04:39:19.958Z,99554.94
2023-12-04T04:39:51.428Z,99553.84
2023-12-04T04:40:22.955Z,99553.84
2023-12-04T04:40:54.405Z,99553.84
2023-12-04T04:41:25.941Z,99551.66
2023-12-04T04:41:57.386Z,99550.03
2023-12-04T04:42:28.872Z,99556.56
2023-12-04T04:43:00.433Z,99553.03
2023-12-04T04:43:31.898Z,99556.56
2023-12-04T04:44:03.328Z,99553.56
2023-12-04T04:44:34.828Z,99547.34
2023-12-04T04:45:06.359Z,99547.59
2023-12-04T04:45:37.944Z,99553.56
2023-12-04T04:46:09.525Z,99550.03
2023-12-04T04:46:40.997Z,99549.22
2023-12-04T04:47:12.471Z,99547.34
2023-12-04T04:47:44.070Z,99548.94
2023-12-04T04:48:15.575Z,99547.84
2023-12-04T04:48:47.114Z,99548.13
2023-12-04T04:49:18.827Z,99545.97
2023-12-04T04:49:50.444Z,99539.72
2023-12-04T04:50:22.049Z,99541.34
2023-12-04T04:50:53.583Z,99544.88
2023-12-04T04:51:25.034Z,99537.81
2023-12-04T04:51:56.999Z,99539.72
2023-12-04T04:52:31.033Z,99540.53
2023-12-04T04:53:03.384Z,99533.72
2023-12-04T04:53:34.874Z,99533.19
2023-12-04T04:54:06.408Z,99533.19
2023-12-04T04:54:38.002Z,99537.25
2023-12-04T04:55:09.608Z,99540.25
2023-12-04T04:55:47.665Z,99547.59
2023-12-04T04:56:21.027Z,99536.72
2023-12-04T04:56:52.508Z,99533.19
2023-12-04T04:57:24.049Z,99538.91
2023-12-04T04:57:55.545Z,99542.44
2023-12-04T04:58:27.086Z,99537.28
2023-12-04T04:58:59.409Z,99540.53
2023-12-04T04:59:30.932Z,99533.47
2023-12-04T05:00:02.612Z,99534.28
2023-12-04T05:00:34.171Z,99533.19
2023-12-04T05:01:05.694Z,99537.81
2023-12-04T05:01:37.205Z,99533.19
2023-12-04T05:02:08.699Z,99539.72
2023-12-04T05:02:40.295Z,99542.44
2023-12-04T05:03:11.769Z,99543.78
2023-12-04T05:03:43.321Z,99534.81
2023-12-04T05:04:15.038Z,99549.47
2023-12-04T05:04:46.653Z,99539.72
2023-12-04T05:05:18.213Z,99549.19
2023-12-04T05:05:49.754Z,99541.06
2023-12-04T05:06:21.265Z,99535.09
2023-12-04T05:06:52.773Z,99545.69
2023-12-04T05:07:24.244Z,99541.88
2023-12-04T05:07:55.724Z,99546.75
2023-12-04T05:08:27.140Z,99543.78
2023-12-04T05:08:59.189Z,99543.25
2023-12-04T05:09:30.720Z,99537.81
2023-12-04T05:10:04.946Z,99544.06
2023-12-04T05:10:37.924Z,99542.97
2023-12-04T05:11:09.392Z,99541.06
2023-12-04T05:11:40.872Z,99543.25
2023-12-04T05:12:12.529Z,99537.81
2023-12-04T05:12:43.959Z,99543.50
2023-12-04T05:13:15.467Z,99535.63
2023-12-04T05:13:47.093Z,99535.63
2023-12-04T05:14:18.552Z,99535.34
2023-12-04T05:14:50.072Z,99534.25
2023-12-04T05:15:21.500Z,99540.78
2023-12-04T05:15:53.080Z,99539.44
2023-12-04T05:16:24.671Z,99531.81
2023-12-04T05:16:56.257Z,99535.91
2023-12-04T05:17:27.765Z,99528.28
2023-12-04T05:17:59.346Z,99526.09
2023-12-04T05:18:30.896Z,99531.81
2023-12-04T05:19:02.533Z,99530.72
2023-12-04T05:19:34.230Z,99525.56
2023-12-04T05:20:05.884Z,99529.09
2023-12-04T05:20:37.399Z,99528.56
2023-12-04T05:21:08.843Z,99532.63
2023-12-04T05:21:40.366Z,99525.84
2023-12-04T05:22:11.869Z,99532.09
2023-12-04T05:22:43.414Z,99528.56
2023-12-04T05:23:14.982Z,99526.09
2023-12-04T05:23:46.423Z,99524.47
2023-12-04T05:24:17.946Z,99522.88
2023-12-04T05:24:49.478Z,99515.00
2023-12-04T05:25:20.938Z,99519.63
2023-12-04T05:25:52.463Z,99518.00
2023-12-04T05:26:24.035Z,99519.91
2023-12-04T05:26:55.608Z,99515.28
2023-12-04T05:27:27.105Z,99515.81
2023-12-04T05:27:58.631Z,99513.91
2023-12-04T05:28:30.088Z,99518.25
2023-12-04T05:29:01.636Z,99515.25
2023-12-04T05:29:33.174Z,99515.53
2023-12-04T05:30:04.746Z,99504.66
2023-12-04T05:30:36.251Z,99509.81
2023-12-04T05:31:07.829Z,99512.00
2023-12-04T05:31:39.393Z,99514.72
2023-12-04T05:32:10.865Z,99513.91
2023-12-04T05:32:42.399Z,99502.75
2023-12-04T05:33:14.061Z,99511.72
2023-12-04T05:33:45.942Z,99506.28
2023-12-04T05:34:17.702Z,99517.44
2023-12-04T05:34:49.293Z,99506.81
2023-12-04T05:35:20.874Z,99513.88
2023-12-04T05:35:52.389Z,99504.38
2023-12-04T05:36:23.885Z,99507.09
2023-12-04T05:36:55.447Z,99503.81
2023-12-04T05:37:27.002Z,99494.88
2023-12-04T05:37:58.525Z,99505.72
2023-12-04T05:38:29.954Z,99505.19
2023-12-04T05:39:01.824Z,99500.28
2023-12-04T05:39:33.663Z,99499.47
2023-12-04T05:40:05.361Z,99496.47
2023-12-04T05:40:37.066Z,99497.06
2023-12-04T05:41:08.567Z,99500.56
2023-12-04T05:41:40.071Z,99498.66
2023-12-04T05:42:11.572Z,99495.44
2023-12-04T05:42:43.137Z,99499.47
2023-12-04T05:43:14.664Z,99488.63
2023-12-04T05:43:46.259Z,99492.44
2023-12-04T05:44:17.774Z,99504.38
2023-12-04T05:44:49.342Z,99494.09
2023-12-04T05:45:20.898Z,99491.38
2023-12-04T05:45:52.992Z,99491.38
2023-12-04T05:46:24.700Z,99485.66
2023-12-04T05:46:56.336Z,99487.03
2023-12-04T05:47:27.890Z,99488.13
2023-12-04T05:47:59.482Z,99488.13
2023-12-04T05:48:31.057Z,99488.66
2023-12-04T05:49:02.559Z,99487.56
2023-12-04T05:49:34.228Z,99488.13
2023-12-04T05:50:05.956Z,99495.72
2023-12-04T05:50:37.556Z,99480.50
2023-12-04T05:51:09.132Z,99484.31
2023-12-04T05:51:40.751Z,99488.66
2023-12-04T05:52:12.347Z,99488.09
2023-12-04T05:52:43.876Z,99489.19
2023-12-04T05:53:15.353Z,99485.91
2023-12-04T05:53:46.904Z,99490.00
2023-12-04T05:54:18.607Z,99489.47
2023-12-04T05:54:50.131Z,99478.88
2023-12-04T05:55:21.680Z,99485.94
2023-12-04T05:55:53.218Z,99483.22
2023-12-04T05:56:24.716Z,99475.09
2023-12-04T05:56:56.203Z,99477.00
2023-12-04T05:57:27.684Z,99478.09
2023-12-04T05:57:59.188Z,99481.59
2023-12-04T05:58:30.689Z,99480.81
2023-12-04T05:59:02.200Z,99480.50
2023-12-04T05:59:33.710Z,99488.38
2023-12-04T06:00:05.182Z,99480.22
2023-12-04T06:00:36.769Z,99477.50
2023-12-04T06:01:08.627Z,99471.28
2023-12-04T06:01:40.202Z,99476.72
2023-12-04T06:02:11.736Z,99482.13
2023-12-04T06:02:43.355Z,99474.28
2023-12-04T06:03:14.859Z,99476.72
2023-12-04T06:03:46.322Z,99481.03
2023-12-04T06:04:17.824Z,99479.41
2023-12-04T06:04:49.270Z,99480.50
2023-12-04T06:05:20.786Z,99478.88
2023-12-04T06:05:55.121Z,99483.75
2023-12-04T06:06:28.255Z,99478.59
2023-12-04T06:06:59.757Z,99474.00
2023-12-04T06:07:31.240Z,99474.28
2023-12-04T06:08:02.709Z,99469.66
2023-12-04T06:08:34.273Z,99472.91
2023-12-04T06:09:05.707Z,99472.09
2023-12-04T06:09:37.247Z,99475.63
2023-12-04T06:10:08.863Z,99470.19
2023-12-04T06:10:40.393Z,99473.72
2023-12-04T06:11:11.843Z,99470.19